Time,TemperatureF,DewpointF,PressureIn,WindDirection,WindDirectionDegrees,WindSpeedMPH,WindSpeedGustMPH,Humidity,HourlyPrecipIn,Conditions,Clouds,dailyrainin,SoftwareType,DateUTC
2013-02-12 00:08:00,29.1,27.9,29.56,SSE,157,0.0,-999.0,95,-99.99,,,0.00,Acu-Link.com,2013-02-12 05:08:00,
2013-02-12 00:24:00,30.0,28.7,29.56,NNE,22,4.7,-999.0,95,-99.99,,,0.00,Acu-Link.com,2013-02-12 05:24:00,
2013-02-12 00:39:00,31.6,30.3,29.57,NNW,337,2.2,-999.0,95,-99.99,,,0.00,Acu-Link.com,2013-02-12 05:39:00,
2013-02-12 00:54:00,31.5,30.2,29.57,West,270,1.7,-999.0,95,-99.99,,,0.00,Acu-Link.com,2013-02-12 05:54:00,
2013-02-12 01:09:00,31.5,30.2,29.56,NW,315,2.2,-999.0,95,-99.99,,,0.00,Acu-Link.com,2013-02-12 06:09:00,
2013-02-12 01:24:00,31.5,30.2,29.56,WSW,247,1.1,-999.0,95,-99.99,,,0.00,Acu-Link.com,2013-02-12 06:24:00,
2013-02-12 01:40:00,31.8,30.5,29.56,NNE,22,0.0,-999.0,95,-99.99,,,0.00,Acu-Link.com,2013-02-12 06:40:00,
2013-02-12 01:55:00,31.3,30.0,29.57,NE,45,2.7,-999.0,95,-99.99,,,0.00,Acu-Link.com,2013-02-12 06:55:00,
2013-02-12 02:10:00,31.6,30.3,29.57,NNE,22,1.1,-999.0,95,-99.99,,,0.00,Acu-Link.com,2013-02-12 07:10:00,
2013-02-12 02:25:00,31.5,30.2,29.56,ESE,112,0.0,-999.0,95,-99.99,,,0.00,Acu-Link.com,2013-02-12 07:25:00,
2013-02-12 02:41:00,31.5,30.2,29.57,NNW,337,0.0,-999.0,95,-99.99,,,0.00,Acu-Link.com,2013-02-12 07:41:00,
2013-02-12 03:13:00,31.5,30.2,29.56,NNE,22,3.2,-999.0,95,-99.99,,,0.00,Acu-Link.com,2013-02-12 08:13:00,
2013-02-12 03:29:00,31.5,30.2,29.57,NE,45,3.2,-999.0,95,-99.99,,,0.00,Acu-Link.com,2013-02-12 08:29:00,
2013-02-12 03:44:00,31.6,29.8,29.56,West,270,2.7,-999.0,93,-99.99,,,0.00,Acu-Link.com,2013-02-12 08:44:00,
2013-02-12 03:59:00,31.5,29.4,29.56,West,270,1.7,-999.0,92,-99.99,,,0.00,Acu-Link.com,2013-02-12 08:59:00,
2013-02-12 04:19:00,31.5,29.4,29.56,NNW,337,2.7,-999.0,92,-99.99,,,0.00,Acu-Link.com,2013-02-12 09:19:00,
2013-02-12 04:34:00,31.3,29.0,29.57,East,90,2.7,-999.0,91,-99.99,,,0.00,Acu-Link.com,2013-02-12 09:34:00,
2013-02-12 04:49:00,31.5,28.9,29.57,WSW,247,3.2,-999.0,90,-99.99,,,0.00,Acu-Link.com,2013-02-12 09:49:00,
2013-02-12 05:04:00,30.9,28.3,29.57,NW,315,2.7,-999.0,90,-99.99,,,0.00,Acu-Link.com,2013-02-12 10:04:00,
2013-02-12 05:20:00,30.9,28.3,29.57,ESE,112,1.7,-999.0,90,-99.99,,,0.00,Acu-Link.com,2013-02-12 10:20:00,
2013-02-12 05:35:00,30.9,27.8,29.57,ESE,112,1.1,-999.0,88,-99.99,,,0.00,Acu-Link.com,2013-02-12 10:35:00,
2013-02-12 05:50:00,30.9,27.8,29.57,SW,225,2.7,-999.0,88,-99.99,,,0.00,Acu-Link.com,2013-02-12 10:50:00,
2013-02-12 06:05:00,30.9,27.8,29.57,South,180,1.1,-999.0,88,-99.99,,,0.00,Acu-Link.com,2013-02-12 11:05:00,
2013-02-12 06:20:00,31.1,27.7,29.56,North,0,4.2,-999.0,87,-99.99,,,0.00,Acu-Link.com,2013-02-12 11:20:00,
2013-02-12 06:36:00,31.1,27.4,29.56,SSE,157,2.7,-999.0,86,-99.99,,,0.00,Acu-Link.com,2013-02-12 11:36:00,
2013-02-12 06:51:00,30.7,26.7,29.57,West,270,3.7,-999.0,85,-99.99,,,0.00,Acu-Link.com,2013-02-12 11:51:00,
2013-02-12 07:06:00,30.7,26.7,29.57,North,0,0.0,-999.0,85,-99.99,,,0.00,Acu-Link.com,2013-02-12 12:06:00,
2013-02-12 07:21:00,30.7,26.4,29.57,NNE,22,7.8,-999.0,84,-99.99,,,0.00,Acu-Link.com,2013-02-12 12:21:00,
2013-02-12 07:36:00,31.1,26.6,29.57,ESE,112,2.2,-999.0,83,-99.99,,,0.00,Acu-Link.com,2013-02-12 12:36:00,
2013-02-12 07:51:00,32.4,27.5,29.57,NNW,337,3.2,-999.0,82,-99.99,,,0.00,Acu-Link.com,2013-02-12 12:51:00,
2013-02-12 08:07:00,31.8,26.6,29.57,West,270,2.7,-999.0,81,-99.99,,,0.00,Acu-Link.com,2013-02-12 13:07:00,
2013-02-12 08:22:00,32.0,26.5,29.57,NNW,337,3.2,-999.0,80,-99.99,,,0.00,Acu-Link.com,2013-02-12 13:22:00,
2013-02-12 08:37:00,32.4,26.3,29.58,NW,315,2.7,-999.0,78,-99.99,,,0.00,Acu-Link.com,2013-02-12 13:37:00,
2013-02-12 08:52:00,33.8,26.7,29.58,WSW,247,5.8,-999.0,75,-99.99,,,0.00,Acu-Link.com,2013-02-12 13:52:00,
2013-02-12 09:07:00,38.3,29.7,29.57,SW,225,4.7,-999.0,71,-99.99,,,0.00,Acu-Link.com,2013-02-12 14:07:00,
2013-02-12 09:23:00,39.6,29.2,29.57,West,270,1.7,-999.0,66,-99.99,,,0.00,Acu-Link.com,2013-02-12 14:23:00,
2013-02-12 09:38:00,38.3,28.3,29.58,West,270,3.7,-999.0,67,-99.99,,,0.00,Acu-Link.com,2013-02-12 14:38:00,
2013-02-12 09:53:00,38.3,28.3,29.59,WSW,247,2.7,-999.0,67,-99.99,,,0.00,Acu-Link.com,2013-02-12 14:53:00,
2013-02-12 10:08:00,39.2,28.8,29.59,South,180,3.2,-999.0,66,-99.99,,,0.00,Acu-Link.com,2013-02-12 15:08:00,
2013-02-12 10:23:00,38.5,28.1,29.59,West,270,6.3,-999.0,66,-99.99,,,0.00,Acu-Link.com,2013-02-12 15:23:00,
2013-02-12 10:38:00,39.2,28.1,29.60,WSW,247,3.2,-999.0,64,-99.99,,,0.00,Acu-Link.com,2013-02-12 15:38:00,
2013-02-12 10:53:00,39.2,28.1,29.61,SSW,202,10.4,-999.0,64,-99.99,,,0.00,Acu-Link.com,2013-02-12 15:53:00,
2013-02-12 11:08:00,39.9,28.7,29.61,West,270,3.2,-999.0,64,-99.99,,,0.00,Acu-Link.com,2013-02-12 16:08:00,
2013-02-12 11:23:00,39.9,28.7,29.62,South,180,2.2,-999.0,64,-99.99,,,0.00,Acu-Link.com,2013-02-12 16:23:00,
2013-02-12 11:39:00,42.1,29.6,29.61,WNW,292,3.7,-999.0,61,-99.99,,,0.00,Acu-Link.com,2013-02-12 16:39:00,
2013-02-12 11:54:00,42.1,29.2,29.61,SSW,202,5.8,-999.0,60,-99.99,,,0.00,Acu-Link.com,2013-02-12 16:54:00,
2013-02-12 12:09:00,40.3,28.7,29.62,South,180,4.7,-999.0,63,-99.99,,,0.00,Acu-Link.com,2013-02-12 17:09:00,
2013-02-12 12:25:00,39.0,28.2,29.62,West,270,5.8,-999.0,65,-99.99,,,0.00,Acu-Link.com,2013-02-12 17:25:00,
2013-02-12 12:40:00,39.2,28.1,29.62,NNW,337,4.7,-999.0,64,-99.99,,,0.00,Acu-Link.com,2013-02-12 17:40:00,
2013-02-12 12:55:00,38.5,27.8,29.62,NNW,337,2.7,-999.0,65,-99.99,,,0.02,Acu-Link.com,2013-02-12 17:55:00,
2013-02-12 13:10:00,39.2,28.4,29.62,East,90,1.7,-999.0,65,-99.99,,,0.05,Acu-Link.com,2013-02-12 18:10:00,
2013-02-12 13:26:00,39.2,28.1,29.62,WSW,247,5.8,-999.0,64,-99.99,,,0.07,Acu-Link.com,2013-02-12 18:26:00,
2013-02-12 13:41:00,39.4,27.9,29.63,North,0,3.7,-999.0,63,-99.99,,,0.10,Acu-Link.com,2013-02-12 18:41:00,
2013-02-12 13:56:00,37.9,26.8,29.64,ESE,112,3.2,-999.0,64,-99.99,,,0.11,Acu-Link.com,2013-02-12 18:56:00,
2013-02-12 14:11:00,37.0,26.7,29.65,SSE,157,2.2,-999.0,66,-99.99,,,0.12,Acu-Link.com,2013-02-12 19:11:00,
2013-02-12 14:26:00,36.7,26.8,29.65,WSW,247,4.2,-999.0,67,-99.99,,,0.13,Acu-Link.com,2013-02-12 19:26:00,
2013-02-12 14:41:00,36.5,27.0,29.66,SW,225,5.8,-999.0,68,-99.99,,,0.14,Acu-Link.com,2013-02-12 19:41:00,
2013-02-12 14:57:00,36.3,27.1,29.66,West,270,3.2,-999.0,69,-99.99,,,0.14,Acu-Link.com,2013-02-12 19:57:00,
2013-02-12 15:12:00,36.7,27.5,29.66,SE,135,4.2,-999.0,69,-99.99,,,0.15,Acu-Link.com,2013-02-12 20:12:00,
2013-02-12 15:27:00,36.7,27.5,29.67,WSW,247,2.7,-999.0,69,-99.99,,,0.15,Acu-Link.com,2013-02-12 20:27:00,
2013-02-12 15:43:00,36.0,27.2,29.68,West,270,1.7,-999.0,70,-99.99,,,0.16,Acu-Link.com,2013-02-12 20:43:00,
2013-02-12 15:58:00,35.6,26.8,29.68,North,0,2.7,-999.0,70,-99.99,,,0.16,Acu-Link.com,2013-02-12 20:58:00,
2013-02-12 16:13:00,35.4,26.9,29.68,West,270,3.7,-999.0,71,-99.99,,,0.17,Acu-Link.com,2013-02-12 21:13:00,
2013-02-12 16:29:00,35.8,27.0,29.68,ESE,112,3.2,-999.0,70,-99.99,,,0.17,Acu-Link.com,2013-02-12 21:29:00,
2013-02-12 16:44:00,35.4,26.9,29.67,WNW,292,3.7,-999.0,71,-99.99,,,0.18,Acu-Link.com,2013-02-12 21:44:00,
2013-02-12 16:59:00,34.9,26.8,29.68,SW,225,2.2,-999.0,72,-99.99,,,0.18,Acu-Link.com,2013-02-12 21:59:00,
2013-02-12 17:14:00,34.7,26.6,29.69,West,270,4.2,-999.0,72,-99.99,,,0.18,Acu-Link.com,2013-02-12 22:14:00,
2013-02-12 17:30:00,34.3,26.6,29.69,WSW,247,2.7,-999.0,73,-99.99,,,0.18,Acu-Link.com,2013-02-12 22:30:00,
2013-02-12 17:45:00,34.3,26.9,29.70,SSW,202,3.7,-999.0,74,-99.99,,,0.19,Acu-Link.com,2013-02-12 22:45:00,
2013-02-12 18:00:00,34.0,26.6,29.70,SW,225,5.3,-999.0,74,-99.99,,,0.19,Acu-Link.com,2013-02-12 23:00:00,
2013-02-12 18:15:00,33.8,26.4,29.71,West,270,2.2,-999.0,74,-99.99,,,0.19,Acu-Link.com,2013-02-12 23:15:00,
2013-02-12 18:31:00,33.4,25.7,29.70,SSW,202,5.8,-999.0,73,-99.99,,,0.19,Acu-Link.com,2013-02-12 23:31:00,
2013-02-12 18:46:00,32.9,25.5,29.72,WSW,247,3.7,-999.0,74,-99.99,,,0.19,Acu-Link.com,2013-02-12 23:46:00,
2013-02-12 19:01:00,32.7,25.3,29.73,ESE,112,1.7,-999.0,74,-99.99,,,0.19,Acu-Link.com,2013-02-13 00:01:00,
2013-02-12 19:17:00,32.5,25.2,29.74,ENE,67,2.2,-999.0,74,-99.99,,,0.19,Acu-Link.com,2013-02-13 00:17:00,
2013-02-12 19:32:00,32.4,25.1,29.74,South,180,2.2,-999.0,74,-99.99,,,0.19,Acu-Link.com,2013-02-13 00:32:00,
2013-02-12 19:47:00,32.2,25.2,29.75,SE,135,2.2,-999.0,75,-99.99,,,0.19,Acu-Link.com,2013-02-13 00:47:00,
2013-02-12 20:02:00,32.2,24.9,29.76,South,180,4.2,-999.0,74,-99.99,,,0.19,Acu-Link.com,2013-02-13 01:02:00,
2013-02-12 20:18:00,32.2,25.2,29.77,South,180,1.1,-999.0,75,-99.99,,,0.19,Acu-Link.com,2013-02-13 01:18:00,
2013-02-12 20:33:00,32.2,24.9,29.78,NW,315,1.7,-999.0,74,-99.99,,,0.19,Acu-Link.com,2013-02-13 01:33:00,
2013-02-12 20:48:00,32.2,24.9,29.79,SSE,157,1.7,-999.0,74,-99.99,,,0.19,Acu-Link.com,2013-02-13 01:48:00,
2013-02-12 21:03:00,34.3,27.2,29.80,West,270,2.2,-999.0,75,-99.99,,,0.19,Acu-Link.com,2013-02-13 02:03:00,
2013-02-12 21:18:00,31.8,25.1,29.79,SW,225,3.7,-999.0,76,-99.99,,,0.19,Acu-Link.com,2013-02-13 02:18:00,
2013-02-12 21:34:00,31.6,24.9,29.79,West,270,1.7,-999.0,76,-99.99,,,0.19,Acu-Link.com,2013-02-13 02:34:00,
2013-02-12 21:49:00,31.5,25.1,29.79,East,90,1.7,-999.0,77,-99.99,,,0.19,Acu-Link.com,2013-02-13 02:49:00,
2013-02-12 22:04:00,31.3,25.3,29.78,SW,225,5.3,-999.0,78,-99.99,,,0.19,Acu-Link.com,2013-02-13 03:04:00,
2013-02-12 22:19:00,31.1,25.1,29.77,SSW,202,3.2,-999.0,78,-99.99,,,0.19,Acu-Link.com,2013-02-13 03:19:00,
2013-02-12 22:35:00,30.9,24.9,29.77,SSE,157,1.7,-999.0,78,-99.99,,,0.19,Acu-Link.com,2013-02-13 03:35:00,
2013-02-12 22:50:00,30.7,25.0,29.76,East,90,2.2,-999.0,79,-99.99,,,0.19,Acu-Link.com,2013-02-13 03:50:00,
2013-02-12 23:05:00,30.4,24.7,29.77,NW,315,2.7,-999.0,79,-99.99,,,0.19,Acu-Link.com,2013-02-13 04:05:00,
2013-02-12 23:21:00,30.4,24.7,29.76,ESE,112,0.0,-999.0,79,-99.99,,,0.19,Acu-Link.com,2013-02-13 04:21:00,
2013-02-12 23:36:00,30.2,24.2,29.76,South,180,1.7,-999.0,78,-99.99,,,0.19,Acu-Link.com,2013-02-13 04:36:00,
2013-02-12 23:52:00,30.2,24.2,29.77,SW,225,0.0,-999.0,78,-99.99,,,0.19,Acu-Link.com,2013-02-13 04:52:00,